Weather at Praia Verde Eco Airfield

Public forecast

Using degrees Celsius for public forecast. Weather courtesy of forecast.io.

Closest aviation weather report (METAR) to Praia Verde Eco Airfield

Closest report is Faro Airport, 26.0 nm (48.1 km) WSW. Retrieved 2022/08/18 05:00 UTC (20 minutes ago):

LPFR 180500Z 13004KT 050V170 CAVOK 18/13 Q1013

Closest aviation forecast (TAF) to Praia Verde Eco Airfield

Closest forecast is Faro Airport, 26.0 nm (48.1 km) WSW. Retrieved 2022-08-18 00:18 UTC (5 hours ago):

TAF LPFR 172300Z 1800/1824 33012KT CAVOK BECMG 1801/1804 VRB02KT BECMG 1809/1811 19007KT BECMG 1812/1814 24010KT BECMG 1816/1818 28010KT BECMG 1819/1821 32008KT